sensor_id;sensor_type;location;lat;lon;timestamp;pressure;altitude;pressure_sealevel;temperature;humidity
26657;BME280;14279;50.010;8.260;2023-07-16T00:02:21;100036.47;;;21.25;90.92
26657;BME280;14279;50.010;8.260;2023-07-16T00:04:46;100051.94;;;21.20;91.80
26657;BME280;14279;50.010;8.260;2023-07-16T00:07:11;100077.78;;;21.08;92.12
26657;BME280;14279;50.010;8.260;2023-07-16T00:09:37;100078.81;;;20.97;94.21
26657;BME280;14279;50.010;8.260;2023-07-16T00:12:03;100070.41;;;21.11;93.75
26657;BME280;14279;50.010;8.260;2023-07-16T00:14:28;100078.97;;;20.95;92.66
26657;BME280;14279;50.010;8.260;2023-07-16T00:16:53;100088.69;;;20.95;92.88
26657;BME280;14279;50.010;8.260;2023-07-16T00:19:19;100092.25;;;21.13;91.29
26657;BME280;14279;50.010;8.260;2023-07-16T00:21:44;100100.25;;;21.04;89.46
26657;BME280;14279;50.010;8.260;2023-07-16T00:24:09;100094.59;;;20.89;88.93
26657;BME280;14279;50.010;8.260;2023-07-16T00:26:35;100077.66;;;21.09;86.21
26657;BME280;14279;50.010;8.260;2023-07-16T00:29:00;100086.13;;;21.13;86.19
26657;BME280;14279;50.010;8.260;2023-07-16T00:31:25;100093.38;;;21.11;85.87
26657;BME280;14279;50.010;8.260;2023-07-16T00:33:51;100104.69;;;21.31;83.94
26657;BME280;14279;50.010;8.260;2023-07-16T00:36:16;100105.22;;;21.35;83.04
26657;BME280;14279;50.010;8.260;2023-07-16T00:38:42;100113.47;;;21.31;83.11
26657;BME280;14279;50.010;8.260;2023-07-16T00:41:08;100128.56;;;21.21;83.20
26657;BME280;14279;50.010;8.260;2023-07-16T00:43:33;100133.06;;;21.11;83.71
26657;BME280;14279;50.010;8.260;2023-07-16T00:45:59;100134.78;;;21.02;82.89
26657;BME280;14279;50.010;8.260;2023-07-16T00:48:24;100111.47;;;21.15;80.63
26657;BME280;14279;50.010;8.260;2023-07-16T00:50:51;100085.00;;;21.15;79.57
26657;BME280;14279;50.010;8.260;2023-07-16T00:53:17;100076.09;;;21.16;78.28
26657;BME280;14279;50.010;8.260;2023-07-16T00:55:45;100099.94;;;21.07;79.19
26657;BME280;14279;50.010;8.260;2023-07-16T00:58:10;100109.53;;;21.08;78.38
26657;BME280;14279;50.010;8.260;2023-07-16T01:00:37;100091.16;;;21.06;78.65
26657;BME280;14279;50.010;8.260;2023-07-16T01:03:09;100089.16;;;20.80;79.45
26657;BME280;14279;50.010;8.260;2023-07-16T01:05:38;100075.38;;;20.86;77.99
26657;BME280;14279;50.010;8.260;2023-07-16T01:08:09;100089.53;;;20.95;78.88
26657;BME280;14279;50.010;8.260;2023-07-16T01:10:36;100102.53;;;20.89;78.04
26657;BME280;14279;50.010;8.260;2023-07-16T01:13:03;100113.72;;;21.10;78.44
26657;BME280;14279;50.010;8.260;2023-07-16T01:15:28;100124.88;;;21.04;78.48
26657;BME280;14279;50.010;8.260;2023-07-16T01:17:54;100118.13;;;20.92;78.99
26657;BME280;14279;50.010;8.260;2023-07-16T01:20:19;100127.84;;;20.91;78.92
26657;BME280;14279;50.010;8.260;2023-07-16T01:25:31;100132.41;;;20.99;79.46
26657;BME280;14279;50.010;8.260;2023-07-16T01:28:21;100132.47;;;20.79;80.80
26657;BME280;14279;50.010;8.260;2023-07-16T01:30:50;100135.28;;;20.78;81.20
26657;BME280;14279;50.010;8.260;2023-07-16T01:33:18;100137.47;;;20.72;80.88
26657;BME280;14279;50.010;8.260;2023-07-16T01:35:47;100137.63;;;20.61;81.91
26657;BME280;14279;50.010;8.260;2023-07-16T01:38:12;100142.94;;;20.32;83.04
26657;BME280;14279;50.010;8.260;2023-07-16T01:40:38;100144.19;;;20.37;82.06
26657;BME280;14279;50.010;8.260;2023-07-16T01:43:04;100153.66;;;20.40;81.81
26657;BME280;14279;50.010;8.260;2023-07-16T01:45:29;100156.84;;;20.34;82.74
26657;BME280;14279;50.010;8.260;2023-07-16T01:50:25;100159.94;;;20.19;82.74
26657;BME280;14279;50.010;8.260;2023-07-16T01:52:50;100173.25;;;20.18;83.46
26657;BME280;14279;50.010;8.260;2023-07-16T01:55:16;100182.88;;;20.19;83.50
26657;BME280;14279;50.010;8.260;2023-07-16T01:57:41;100171.47;;;20.28;83.15
26657;BME280;14279;50.010;8.260;2023-07-16T02:00:07;100166.31;;;20.36;82.45
26657;BME280;14279;50.010;8.260;2023-07-16T02:02:33;100179.25;;;20.49;81.93
26657;BME280;14279;50.010;8.260;2023-07-16T02:04:59;100175.91;;;20.27;83.00
26657;BME280;14279;50.010;8.260;2023-07-16T02:07:25;100182.75;;;20.20;84.05
26657;BME280;14279;50.010;8.260;2023-07-16T02:09:50;100184.81;;;20.36;83.14
26657;BME280;14279;50.010;8.260;2023-07-16T02:12:15;100179.41;;;20.28;83.73
26657;BME280;14279;50.010;8.260;2023-07-16T02:14:44;100174.38;;;20.15;84.30
26657;BME280;14279;50.010;8.260;2023-07-16T02:17:10;100178.13;;;20.22;83.96
26657;BME280;14279;50.010;8.260;2023-07-16T02:19:35;100179.13;;;20.31;83.38
26657;BME280;14279;50.010;8.260;2023-07-16T02:22:01;100180.06;;;20.01;84.23
26657;BME280;14279;50.010;8.260;2023-07-16T02:24:26;100177.72;;;19.97;85.18
26657;BME280;14279;50.010;8.260;2023-07-16T02:26:51;100179.94;;;20.12;83.94
26657;BME280;14279;50.010;8.260;2023-07-16T02:29:20;100182.69;;;20.01;84.42
26657;BME280;14279;50.010;8.260;2023-07-16T02:31:47;100181.00;;;19.90;84.66
26657;BME280;14279;50.010;8.260;2023-07-16T02:34:14;100188.50;;;19.85;84.55
26657;BME280;14279;50.010;8.260;2023-07-16T02:36:46;100196.06;;;19.99;84.10
26657;BME280;14279;50.010;8.260;2023-07-16T02:39:12;100197.72;;;19.90;83.56
26657;BME280;14279;50.010;8.260;2023-07-16T02:41:37;100208.47;;;19.77;83.92
26657;BME280;14279;50.010;8.260;2023-07-16T02:44:05;100203.91;;;19.79;83.77
26657;BME280;14279;50.010;8.260;2023-07-16T02:46:31;100211.41;;;19.84;83.71
26657;BME280;14279;50.010;8.260;2023-07-16T02:48:56;100220.72;;;19.78;84.18
26657;BME280;14279;50.010;8.260;2023-07-16T02:51:24;100217.78;;;19.72;83.97
26657;BME280;14279;50.010;8.260;2023-07-16T02:53:50;100214.81;;;19.65;84.04
26657;BME280;14279;50.010;8.260;2023-07-16T02:56:15;100216.72;;;19.53;83.93
26657;BME280;14279;50.010;8.260;2023-07-16T02:58:41;100226.31;;;19.54;84.20
26657;BME280;14279;50.010;8.260;2023-07-16T03:01:07;100218.53;;;19.52;84.06
26657;BME280;14279;50.010;8.260;2023-07-16T03:03:32;100218.03;;;19.59;83.51
26657;BME280;14279;50.010;8.260;2023-07-16T03:05:58;100221.88;;;19.55;84.01
26657;BME280;14279;50.010;8.260;2023-07-16T03:08:23;100222.63;;;19.35;84.54
26657;BME280;14279;50.010;8.260;2023-07-16T03:10:51;100227.44;;;19.51;84.03
26657;BME280;14279;50.010;8.260;2023-07-16T03:13:16;100223.38;;;19.47;83.86
26657;BME280;14279;50.010;8.260;2023-07-16T03:15:42;100225.03;;;19.48;83.62
26657;BME280;14279;50.010;8.260;2023-07-16T03:18:07;100229.16;;;19.41;83.88
26657;BME280;14279;50.010;8.260;2023-07-16T03:20:32;100231.09;;;19.39;83.80
26657;BME280;14279;50.010;8.260;2023-07-16T03:22:58;100242.91;;;19.35;84.03
26657;BME280;14279;50.010;8.260;2023-07-16T03:25:23;100245.97;;;19.40;83.13
26657;BME280;14279;50.010;8.260;2023-07-16T03:27:48;100261.66;;;19.32;83.99
26657;BME280;14279;50.010;8.260;2023-07-16T03:30:14;100251.91;;;19.53;82.95
26657;BME280;14279;50.010;8.260;2023-07-16T03:32:39;100260.22;;;19.49;82.89
26657;BME280;14279;50.010;8.260;2023-07-16T03:35:04;100255.19;;;19.46;82.55
26657;BME280;14279;50.010;8.260;2023-07-16T03:37:30;100259.94;;;19.52;81.83
26657;BME280;14279;50.010;8.260;2023-07-16T03:39:55;100264.63;;;19.70;80.67
26657;BME280;14279;50.010;8.260;2023-07-16T03:42:20;100269.53;;;19.53;82.00
26657;BME280;14279;50.010;8.260;2023-07-16T03:44:47;100271.91;;;19.56;81.47
26657;BME280;14279;50.010;8.260;2023-07-16T03:47:12;100270.94;;;19.57;82.07
26657;BME280;14279;50.010;8.260;2023-07-16T03:49:38;100268.13;;;19.49;81.98
26657;BME280;14279;50.010;8.260;2023-07-16T03:52:03;100279.31;;;19.41;82.21
26657;BME280;14279;50.010;8.260;2023-07-16T03:54:29;100277.13;;;19.46;81.52
26657;BME280;14279;50.010;8.260;2023-07-16T03:56:54;100276.53;;;19.33;82.76
26657;BME280;14279;50.010;8.260;2023-07-16T03:59:19;100279.97;;;19.33;83.12
26657;BME280;14279;50.010;8.260;2023-07-16T04:01:44;100281.16;;;19.19;83.03
26657;BME280;14279;50.010;8.260;2023-07-16T04:04:10;100278.41;;;19.21;83.36
26657;BME280;14279;50.010;8.260;2023-07-16T04:06:35;100277.44;;;19.22;83.08
26657;BME280;14279;50.010;8.260;2023-07-16T04:09:00;100273.38;;;19.18;82.76
26657;BME280;14279;50.010;8.260;2023-07-16T04:11:25;100276.94;;;19.38;82.10
26657;BME280;14279;50.010;8.260;2023-07-16T04:13:51;100279.53;;;19.28;82.68
26657;BME280;14279;50.010;8.260;2023-07-16T04:16:16;100287.63;;;19.15;82.43
26657;BME280;14279;50.010;8.260;2023-07-16T04:18:41;100290.88;;;19.19;82.13
26657;BME280;14279;50.010;8.260;2023-07-16T04:21:07;100294.78;;;19.25;81.75
26657;BME280;14279;50.010;8.260;2023-07-16T04:23:32;100303.59;;;19.14;82.47
26657;BME280;14279;50.010;8.260;2023-07-16T04:25:58;100296.97;;;19.19;82.01
26657;BME280;14279;50.010;8.260;2023-07-16T04:28:23;100304.94;;;19.29;81.02
26657;BME280;14279;50.010;8.260;2023-07-16T04:30:48;100299.09;;;19.26;81.44
26657;BME280;14279;50.010;8.260;2023-07-16T04:33:14;100313.72;;;19.30;80.34
26657;BME280;14279;50.010;8.260;2023-07-16T04:35:39;100313.22;;;19.36;79.91
26657;BME280;14279;50.010;8.260;2023-07-16T04:38:05;100325.81;;;19.32;80.07
26657;BME280;14279;50.010;8.260;2023-07-16T04:40:30;100325.50;;;19.26;79.48
26657;BME280;14279;50.010;8.260;2023-07-16T04:42:56;100333.34;;;19.16;79.99
26657;BME280;14279;50.010;8.260;2023-07-16T04:45:21;100335.97;;;19.16;78.57
26657;BME280;14279;50.010;8.260;2023-07-16T04:47:47;100340.41;;;19.15;79.58
26657;BME280;14279;50.010;8.260;2023-07-16T04:50:12;100331.41;;;19.39;78.21
26657;BME280;14279;50.010;8.260;2023-07-16T04:52:37;100334.75;;;19.20;79.08
26657;BME280;14279;50.010;8.260;2023-07-16T04:55:03;100343.19;;;19.14;77.70
26657;BME280;14279;50.010;8.260;2023-07-16T04:57:28;100336.13;;;19.35;77.65
26657;BME280;14279;50.010;8.260;2023-07-16T04:59:54;100346.03;;;19.22;77.41
26657;BME280;14279;50.010;8.260;2023-07-16T05:02:19;100353.94;;;19.22;76.93
26657;BME280;14279;50.010;8.260;2023-07-16T05:04:44;100353.03;;;19.12;77.16
26657;BME280;14279;50.010;8.260;2023-07-16T05:07:13;100357.41;;;19.22;77.20
26657;BME280;14279;50.010;8.260;2023-07-16T05:09:38;100360.31;;;19.19;77.72
26657;BME280;14279;50.010;8.260;2023-07-16T05:12:03;100350.06;;;19.26;76.70
26657;BME280;14279;50.010;8.260;2023-07-16T05:14:29;100351.94;;;19.35;76.74
26657;BME280;14279;50.010;8.260;2023-07-16T05:16:55;100351.31;;;19.22;76.22
26657;BME280;14279;50.010;8.260;2023-07-16T05:19:20;100364.44;;;19.33;76.40
26657;BME280;14279;50.010;8.260;2023-07-16T05:21:45;100361.88;;;19.43;75.81
26657;BME280;14279;50.010;8.260;2023-07-16T05:24:11;100369.78;;;19.22;76.75
26657;BME280;14279;50.010;8.260;2023-07-16T05:26:36;100375.56;;;19.16;76.40
26657;BME280;14279;50.010;8.260;2023-07-16T05:29:01;100374.28;;;19.31;76.15
26657;BME280;14279;50.010;8.260;2023-07-16T05:31:27;100381.63;;;19.28;75.83
26657;BME280;14279;50.010;8.260;2023-07-16T05:33:52;100390.25;;;19.30;75.70
26657;BME280;14279;50.010;8.260;2023-07-16T05:36:17;100391.31;;;19.27;74.82
26657;BME280;14279;50.010;8.260;2023-07-16T05:38:43;100400.13;;;19.16;75.91
26657;BME280;14279;50.010;8.260;2023-07-16T05:41:08;100389.94;;;19.23;75.04
26657;BME280;14279;50.010;8.260;2023-07-16T05:43:33;100397.97;;;19.21;75.55
26657;BME280;14279;50.010;8.260;2023-07-16T05:45:58;100397.13;;;19.42;74.00
26657;BME280;14279;50.010;8.260;2023-07-16T05:48:24;100407.31;;;19.26;73.67
26657;BME280;14279;50.010;8.260;2023-07-16T05:50:49;100414.25;;;19.27;73.51
26657;BME280;14279;50.010;8.260;2023-07-16T05:53:14;100412.16;;;19.42;72.50
26657;BME280;14279;50.010;8.260;2023-07-16T05:55:40;100407.19;;;19.48;72.65
26657;BME280;14279;50.010;8.260;2023-07-16T05:58:05;100404.63;;;19.58;72.29
26657;BME280;14279;50.010;8.260;2023-07-16T06:00:30;100407.28;;;19.79;71.14
26657;BME280;14279;50.010;8.260;2023-07-16T06:02:56;100426.38;;;19.50;72.24
26657;BME280;14279;50.010;8.260;2023-07-16T06:05:21;100416.72;;;19.40;72.98
26657;BME280;14279;50.010;8.260;2023-07-16T06:07:46;100422.25;;;19.36;72.13
26657;BME280;14279;50.010;8.260;2023-07-16T06:10:12;100420.81;;;19.32;72.46
26657;BME280;14279;50.010;8.260;2023-07-16T06:12:37;100412.44;;;19.60;71.38
26657;BME280;14279;50.010;8.260;2023-07-16T06:15:03;100397.31;;;19.62;71.78
26657;BME280;14279;50.010;8.260;2023-07-16T06:17:28;100414.47;;;19.56;70.80
26657;BME280;14279;50.010;8.260;2023-07-16T06:19:53;100407.22;;;19.70;68.96
26657;BME280;14279;50.010;8.260;2023-07-16T06:22:19;100420.53;;;19.68;69.87
26657;BME280;14279;50.010;8.260;2023-07-16T06:24:44;100416.03;;;19.80;69.57
26657;BME280;14279;50.010;8.260;2023-07-16T06:27:09;100415.19;;;19.79;68.79
26657;BME280;14279;50.010;8.260;2023-07-16T06:29:34;100426.91;;;19.65;67.40
26657;BME280;14279;50.010;8.260;2023-07-16T06:32:00;100421.84;;;19.95;66.82
26657;BME280;14279;50.010;8.260;2023-07-16T06:34:25;100422.88;;;19.82;67.95
26657;BME280;14279;50.010;8.260;2023-07-16T06:36:51;100429.31;;;19.68;67.67
26657;BME280;14279;50.010;8.260;2023-07-16T06:39:16;100430.00;;;19.71;67.93
26657;BME280;14279;50.010;8.260;2023-07-16T06:41:41;100427.13;;;19.74;68.08
26657;BME280;14279;50.010;8.260;2023-07-16T06:44:07;100424.88;;;19.90;66.67
26657;BME280;14279;50.010;8.260;2023-07-16T06:46:32;100429.50;;;19.98;67.03
26657;BME280;14279;50.010;8.260;2023-07-16T06:48:57;100426.34;;;20.04;65.61
26657;BME280;14279;50.010;8.260;2023-07-16T06:51:22;100435.63;;;19.98;66.59
26657;BME280;14279;50.010;8.260;2023-07-16T06:53:48;100435.84;;;20.17;66.13
26657;BME280;14279;50.010;8.260;2023-07-16T06:56:14;100430.47;;;20.18;65.06
26657;BME280;14279;50.010;8.260;2023-07-16T06:58:39;100429.88;;;20.15;64.17
26657;BME280;14279;50.010;8.260;2023-07-16T07:01:04;100425.78;;;20.32;64.88
26657;BME280;14279;50.010;8.260;2023-07-16T07:03:29;100446.69;;;20.45;64.78
26657;BME280;14279;50.010;8.260;2023-07-16T07:05:55;100434.16;;;20.37;63.68
26657;BME280;14279;50.010;8.260;2023-07-16T07:08:20;100430.34;;;20.61;63.77
26657;BME280;14279;50.010;8.260;2023-07-16T07:10:48;100446.91;;;20.32;63.34
26657;BME280;14279;50.010;8.260;2023-07-16T07:13:13;100444.31;;;20.41;63.10
26657;BME280;14279;50.010;8.260;2023-07-16T07:15:39;100442.56;;;20.52;63.11
26657;BME280;14279;50.010;8.260;2023-07-16T07:18:04;100439.81;;;20.73;61.13
26657;BME280;14279;50.010;8.260;2023-07-16T07:20:29;100443.56;;;20.61;61.23
26657;BME280;14279;50.010;8.260;2023-07-16T07:22:54;100443.59;;;20.70;61.49
26657;BME280;14279;50.010;8.260;2023-07-16T07:25:20;100452.03;;;20.54;60.74
26657;BME280;14279;50.010;8.260;2023-07-16T07:27:45;100438.34;;;20.80;59.75
26657;BME280;14279;50.010;8.260;2023-07-16T07:30:10;100447.00;;;20.92;58.94
26657;BME280;14279;50.010;8.260;2023-07-16T07:32:37;100441.47;;;20.64;59.48
26657;BME280;14279;50.010;8.260;2023-07-16T07:35:02;100451.25;;;20.73;58.98
26657;BME280;14279;50.010;8.260;2023-07-16T07:37:28;100438.16;;;20.72;58.76
26657;BME280;14279;50.010;8.260;2023-07-16T07:39:53;100443.13;;;20.96;58.51
26657;BME280;14279;50.010;8.260;2023-07-16T07:42:19;100447.16;;;20.91;56.72
26657;BME280;14279;50.010;8.260;2023-07-16T07:44:44;100443.53;;;20.82;55.13
26657;BME280;14279;50.010;8.260;2023-07-16T07:47:09;100446.88;;;20.94;56.38
26657;BME280;14279;50.010;8.260;2023-07-16T07:49:34;100446.75;;;21.05;56.02
26657;BME280;14279;50.010;8.260;2023-07-16T07:52:00;100443.22;;;20.85;54.19
26657;BME280;14279;50.010;8.260;2023-07-16T07:54:25;100440.59;;;20.95;53.68
26657;BME280;14279;50.010;8.260;2023-07-16T07:56:50;100456.09;;;21.19;53.61
26657;BME280;14279;50.010;8.260;2023-07-16T07:59:16;100449.69;;;21.22;53.08
26657;BME280;14279;50.010;8.260;2023-07-16T08:01:41;100457.16;;;20.97;52.87
26657;BME280;14279;50.010;8.260;2023-07-16T08:04:06;100449.13;;;20.98;52.65
26657;BME280;14279;50.010;8.260;2023-07-16T08:06:32;100450.78;;;20.99;53.72
26657;BME280;14279;50.010;8.260;2023-07-16T08:08:57;100445.06;;;21.04;54.01
26657;BME280;14279;50.010;8.260;2023-07-16T08:11:22;100455.13;;;21.10;52.88
26657;BME280;14279;50.010;8.260;2023-07-16T08:13:47;100453.19;;;21.32;52.15
26657;BME280;14279;50.010;8.260;2023-07-16T08:16:14;100439.09;;;21.02;51.67
26657;BME280;14279;50.010;8.260;2023-07-16T08:18:39;100454.72;;;21.54;52.26
26657;BME280;14279;50.010;8.260;2023-07-16T08:21:04;100460.31;;;21.41;50.37
26657;BME280;14279;50.010;8.260;2023-07-16T08:23:30;100441.19;;;21.47;50.48
26657;BME280;14279;50.010;8.260;2023-07-16T08:25:55;100459.88;;;21.46;50.82
26657;BME280;14279;50.010;8.260;2023-07-16T08:28:20;100460.31;;;21.51;50.56
26657;BME280;14279;50.010;8.260;2023-07-16T08:30:48;100448.31;;;21.37;50.41
26657;BME280;14279;50.010;8.260;2023-07-16T08:33:14;100463.78;;;21.61;49.34
26657;BME280;14279;50.010;8.260;2023-07-16T08:35:41;100462.53;;;21.75;49.86
26657;BME280;14279;50.010;8.260;2023-07-16T08:38:06;100455.13;;;21.30;51.90
26657;BME280;14279;50.010;8.260;2023-07-16T08:40:35;100457.94;;;21.28;50.49
26657;BME280;14279;50.010;8.260;2023-07-16T08:43:01;100464.22;;;21.67;51.14
26657;BME280;14279;50.010;8.260;2023-07-16T08:45:29;100469.34;;;21.58;51.33
26657;BME280;14279;50.010;8.260;2023-07-16T08:47:55;100462.25;;;21.59;52.02
26657;BME280;14279;50.010;8.260;2023-07-16T08:50:21;100471.88;;;21.70;50.82
26657;BME280;14279;50.010;8.260;2023-07-16T08:52:48;100468.63;;;21.56;50.12
26657;BME280;14279;50.010;8.260;2023-07-16T08:55:13;100467.66;;;21.57;48.99
26657;BME280;14279;50.010;8.260;2023-07-16T08:57:40;100469.34;;;21.98;48.35
26657;BME280;14279;50.010;8.260;2023-07-16T09:00:25;100471.00;;;21.99;49.60
26657;BME280;14279;50.010;8.260;2023-07-16T09:02:57;100473.25;;;21.94;49.73
26657;BME280;14279;50.010;8.260;2023-07-16T09:05:22;100462.94;;;21.81;50.98
26657;BME280;14279;50.010;8.260;2023-07-16T09:07:49;100471.72;;;21.81;51.73
26657;BME280;14279;50.010;8.260;2023-07-16T09:10:15;100477.00;;;22.01;51.15
26657;BME280;14279;50.010;8.260;2023-07-16T09:12:44;100474.47;;;21.99;50.89
26657;BME280;14279;50.010;8.260;2023-07-16T09:15:20;100473.34;;;22.12;50.24
26657;BME280;14279;50.010;8.260;2023-07-16T09:18:19;100465.13;;;22.15;49.56
26657;BME280;14279;50.010;8.260;2023-07-16T09:21:00;100468.28;;;22.28;48.54
26657;BME280;14279;50.010;8.260;2023-07-16T09:23:53;100476.47;;;22.35;48.52
26657;BME280;14279;50.010;8.260;2023-07-16T09:26:18;100453.50;;;22.26;47.55
26657;BME280;14279;50.010;8.260;2023-07-16T09:28:47;100470.56;;;22.13;46.92
26657;BME280;14279;50.010;8.260;2023-07-16T09:31:13;100465.25;;;22.13;47.05
26657;BME280;14279;50.010;8.260;2023-07-16T09:33:38;100466.47;;;22.19;46.43
26657;BME280;14279;50.010;8.260;2023-07-16T09:36:03;100471.41;;;22.04;47.04
26657;BME280;14279;50.010;8.260;2023-07-16T09:38:29;100471.69;;;22.58;46.95
26657;BME280;14279;50.010;8.260;2023-07-16T09:40:55;100468.06;;;22.59;46.78
26657;BME280;14279;50.010;8.260;2023-07-16T09:43:21;100474.03;;;22.61;46.55
26657;BME280;14279;50.010;8.260;2023-07-16T09:45:47;100477.13;;;22.57;45.84
26657;BME280;14279;50.010;8.260;2023-07-16T09:48:22;100479.00;;;22.36;45.59
26657;BME280;14279;50.010;8.260;2023-07-16T09:50:53;100479.47;;;22.60;45.38
26657;BME280;14279;50.010;8.260;2023-07-16T09:53:20;100480.47;;;22.59;45.57
26657;BME280;14279;50.010;8.260;2023-07-16T09:55:46;100475.38;;;22.47;45.72
26657;BME280;14279;50.010;8.260;2023-07-16T09:58:13;100469.91;;;22.39;45.13
26657;BME280;14279;50.010;8.260;2023-07-16T10:00:39;100491.13;;;22.49;44.44
26657;BME280;14279;50.010;8.260;2023-07-16T10:03:08;100472.84;;;22.74;44.61
26657;BME280;14279;50.010;8.260;2023-07-16T10:05:45;100473.72;;;22.92;44.54
26657;BME280;14279;50.010;8.260;2023-07-16T10:08:23;100485.09;;;22.85;44.57
26657;BME280;14279;50.010;8.260;2023-07-16T10:10:56;100485.66;;;22.78;43.38
26657;BME280;14279;50.010;8.260;2023-07-16T10:13:29;100463.56;;;22.88;43.74
26657;BME280;14279;50.010;8.260;2023-07-16T10:15:58;100481.94;;;23.17;43.78
26657;BME280;14279;50.010;8.260;2023-07-16T10:20:49;100479.84;;;23.39;42.74
26657;BME280;14279;50.010;8.260;2023-07-16T10:23:15;100465.00;;;23.00;41.71
26657;BME280;14279;50.010;8.260;2023-07-16T10:26:00;100463.81;;;22.66;43.00
26657;BME280;14279;50.010;8.260;2023-07-16T10:28:26;100485.88;;;23.23;42.51
26657;BME280;14279;50.010;8.260;2023-07-16T10:30:52;100473.81;;;23.29;41.04
26657;BME280;14279;50.010;8.260;2023-07-16T10:33:17;100470.59;;;23.25;41.94
26657;BME280;14279;50.010;8.260;2023-07-16T10:35:45;100476.00;;;23.69;41.85
26657;BME280;14279;50.010;8.260;2023-07-16T10:38:10;100476.00;;;23.51;41.92
26657;BME280;14279;50.010;8.260;2023-07-16T10:40:46;100484.44;;;23.01;41.51
26657;BME280;14279;50.010;8.260;2023-07-16T10:43:12;100479.59;;;23.14;40.67
26657;BME280;14279;50.010;8.260;2023-07-16T10:45:38;100478.19;;;23.56;41.12
26657;BME280;14279;50.010;8.260;2023-07-16T10:48:04;100481.88;;;23.81;40.78
26657;BME280;14279;50.010;8.260;2023-07-16T10:50:32;100475.94;;;24.06;40.33
26657;BME280;14279;50.010;8.260;2023-07-16T10:53:00;100466.78;;;23.64;39.34
26657;BME280;14279;50.010;8.260;2023-07-16T10:55:30;100479.84;;;23.57;40.86
26657;BME280;14279;50.010;8.260;2023-07-16T10:57:57;100475.59;;;23.64;40.77
26657;BME280;14279;50.010;8.260;2023-07-16T11:00:23;100468.94;;;23.60;40.38
26657;BME280;14279;50.010;8.260;2023-07-16T11:02:51;100472.28;;;23.89;40.28
26657;BME280;14279;50.010;8.260;2023-07-16T11:05:19;100469.03;;;23.77;39.41
26657;BME280;14279;50.010;8.260;2023-07-16T11:07:45;100450.81;;;24.00;38.99
26657;BME280;14279;50.010;8.260;2023-07-16T11:10:11;100458.53;;;23.93;39.07
26657;BME280;14279;50.010;8.260;2023-07-16T11:12:37;100466.72;;;24.18;38.94
26657;BME280;14279;50.010;8.260;2023-07-16T11:15:02;100469.41;;;24.00;38.75
26657;BME280;14279;50.010;8.260;2023-07-16T11:17:28;100449.53;;;24.39;37.38
26657;BME280;14279;50.010;8.260;2023-07-16T11:19:55;100452.50;;;24.36;37.49
26657;BME280;14279;50.010;8.260;2023-07-16T11:22:25;100462.25;;;24.70;37.16
26657;BME280;14279;50.010;8.260;2023-07-16T11:24:52;100452.50;;;24.09;37.52
26657;BME280;14279;50.010;8.260;2023-07-16T11:27:20;100454.34;;;24.43;38.19
26657;BME280;14279;50.010;8.260;2023-07-16T11:32:32;100447.50;;;24.33;38.15
26657;BME280;14279;50.010;8.260;2023-07-16T11:34:59;100461.16;;;24.46;37.77
26657;BME280;14279;50.010;8.260;2023-07-16T11:37:26;100456.88;;;24.96;37.16
26657;BME280;14279;50.010;8.260;2023-07-16T11:39:55;100466.28;;;25.42;36.83
26657;BME280;14279;50.010;8.260;2023-07-16T11:42:28;100460.88;;;24.92;35.15
26657;BME280;14279;50.010;8.260;2023-07-16T11:44:53;100459.53;;;24.80;36.32
26657;BME280;14279;50.010;8.260;2023-07-16T11:47:20;100454.19;;;24.45;37.68
26657;BME280;14279;50.010;8.260;2023-07-16T11:49:45;100443.59;;;24.53;37.00
26657;BME280;14279;50.010;8.260;2023-07-16T11:52:11;100457.44;;;24.65;36.64
26657;BME280;14279;50.010;8.260;2023-07-16T11:54:36;100449.81;;;24.70;35.36
26657;BME280;14279;50.010;8.260;2023-07-16T11:57:01;100443.69;;;24.78;36.69
26657;BME280;14279;50.010;8.260;2023-07-16T11:59:27;100448.09;;;25.04;36.23
26657;BME280;14279;50.010;8.260;2023-07-16T12:01:52;100451.72;;;24.86;36.43
26657;BME280;14279;50.010;8.260;2023-07-16T12:04:18;100440.56;;;24.91;35.19
26657;BME280;14279;50.010;8.260;2023-07-16T12:06:44;100450.41;;;25.07;35.79
26657;BME280;14279;50.010;8.260;2023-07-16T12:09:09;100454.91;;;25.15;34.85
26657;BME280;14279;50.010;8.260;2023-07-16T12:11:35;100455.09;;;25.21;35.21
26657;BME280;14279;50.010;8.260;2023-07-16T12:14:01;100439.91;;;24.97;35.58
26657;BME280;14279;50.010;8.260;2023-07-16T12:16:27;100439.09;;;25.05;35.96
26657;BME280;14279;50.010;8.260;2023-07-16T12:18:52;100430.75;;;25.00;35.86
26657;BME280;14279;50.010;8.260;2023-07-16T12:21:17;100445.75;;;25.09;36.20
26657;BME280;14279;50.010;8.260;2023-07-16T12:23:42;100443.47;;;25.47;35.45
26657;BME280;14279;50.010;8.260;2023-07-16T12:26:08;100430.72;;;24.75;36.52
26657;BME280;14279;50.010;8.260;2023-07-16T12:28:33;100430.81;;;24.65;36.14
26657;BME280;14279;50.010;8.260;2023-07-16T12:30:59;100436.09;;;24.49;35.69
26657;BME280;14279;50.010;8.260;2023-07-16T12:33:24;100428.16;;;24.65;35.76
26657;BME280;14279;50.010;8.260;2023-07-16T12:35:49;100424.72;;;24.38;36.00
26657;BME280;14279;50.010;8.260;2023-07-16T12:38:15;100444.19;;;24.73;35.93
26657;BME280;14279;50.010;8.260;2023-07-16T12:40:40;100429.78;;;25.26;35.66
26657;BME280;14279;50.010;8.260;2023-07-16T12:43:06;100429.63;;;25.02;34.80
26657;BME280;14279;50.010;8.260;2023-07-16T12:45:32;100433.13;;;25.36;34.72
26657;BME280;14279;50.010;8.260;2023-07-16T12:47:57;100434.28;;;25.17;33.63
26657;BME280;14279;50.010;8.260;2023-07-16T12:50:22;100430.28;;;25.21;34.28
26657;BME280;14279;50.010;8.260;2023-07-16T12:52:48;100430.75;;;24.91;34.57
26657;BME280;14279;50.010;8.260;2023-07-16T12:55:13;100432.72;;;24.81;36.00
26657;BME280;14279;50.010;8.260;2023-07-16T12:57:39;100432.94;;;25.13;35.33